sensor_id;sensor_type;location;lat;lon;timestamp;temperature;humidity
20712;DHT22;10517;50.742;4.224;2022-11-21T00:02:24;6.80;99.90
20712;DHT22;10517;50.742;4.224;2022-11-21T00:04:49;6.70;99.90
20712;DHT22;10517;50.742;4.224;2022-11-21T00:07:15;6.60;99.90
20712;DHT22;10517;50.742;4.224;2022-11-21T00:09:41;6.60;99.90
20712;DHT22;10517;50.742;4.224;2022-11-21T00:12:06;6.60;99.90
20712;DHT22;10517;50.742;4.224;2022-11-21T00:14:32;6.60;99.90
20712;DHT22;10517;50.742;4.224;2022-11-21T00:16:58;6.60;99.90
20712;DHT22;10517;50.742;4.224;2022-11-21T00:19:24;6.60;99.90
20712;DHT22;10517;50.742;4.224;2022-11-21T00:21:49;6.50;99.90
20712;DHT22;10517;50.742;4.224;2022-11-21T00:24:15;6.60;99.90
20712;DHT22;10517;50.742;4.224;2022-11-21T00:26:40;6.50;99.90
20712;DHT22;10517;50.742;4.224;2022-11-21T00:29:06;6.40;99.90
20712;DHT22;10517;50.742;4.224;2022-11-21T00:31:31;6.40;99.90
20712;DHT22;10517;50.742;4.224;2022-11-21T00:33:57;6.40;99.90
20712;DHT22;10517;50.742;4.224;2022-11-21T00:36:23;6.30;99.90
20712;DHT22;10517;50.742;4.224;2022-11-21T00:38:48;6.20;99.90
20712;DHT22;10517;50.742;4.224;2022-11-21T00:41:14;6.20;99.90
20712;DHT22;10517;50.742;4.224;2022-11-21T00:43:39;6.20;99.90
20712;DHT22;10517;50.742;4.224;2022-11-21T00:46:05;6.20;99.90
20712;DHT22;10517;50.742;4.224;2022-11-21T00:48:31;6.10;99.90
20712;DHT22;10517;50.742;4.224;2022-11-21T00:50:57;6.00;99.90
20712;DHT22;10517;50.742;4.224;2022-11-21T00:53:22;6.00;99.90
20712;DHT22;10517;50.742;4.224;2022-11-21T00:55:48;5.90;99.90
20712;DHT22;10517;50.742;4.224;2022-11-21T00:58:13;6.00;99.90
20712;DHT22;10517;50.742;4.224;2022-11-21T01:00:39;5.90;99.90
20712;DHT22;10517;50.742;4.224;2022-11-21T01:03:05;6.00;99.90
20712;DHT22;10517;50.742;4.224;2022-11-21T01:05:31;6.10;99.90
20712;DHT22;10517;50.742;4.224;2022-11-21T01:07:57;6.20;99.90
20712;DHT22;10517;50.742;4.224;2022-11-21T01:10:23;6.30;99.90
20712;DHT22;10517;50.742;4.224;2022-11-21T01:12:48;6.30;99.90
20712;DHT22;10517;50.742;4.224;2022-11-21T01:15:15;6.40;99.90
20712;DHT22;10517;50.742;4.224;2022-11-21T01:17:41;6.40;99.90
20712;DHT22;10517;50.742;4.224;2022-11-21T01:20:07;6.50;99.90
20712;DHT22;10517;50.742;4.224;2022-11-21T01:22:33;6.60;99.90
20712;DHT22;10517;50.742;4.224;2022-11-21T01:24:58;6.70;99.90
20712;DHT22;10517;50.742;4.224;2022-11-21T01:27:24;6.70;99.90
20712;DHT22;10517;50.742;4.224;2022-11-21T01:29:49;6.80;99.90
20712;DHT22;10517;50.742;4.224;2022-11-21T01:32:17;6.90;99.90
20712;DHT22;10517;50.742;4.224;2022-11-21T01:34:42;7.00;99.90
20712;DHT22;10517;50.742;4.224;2022-11-21T01:37:08;7.00;99.90
20712;DHT22;10517;50.742;4.224;2022-11-21T01:39:34;6.80;99.90
20712;DHT22;10517;50.742;4.224;2022-11-21T01:41:59;6.80;99.90
20712;DHT22;10517;50.742;4.224;2022-11-21T01:44:44;6.80;99.90
20712;DHT22;10517;50.742;4.224;2022-11-21T01:47:10;6.80;99.90
20712;DHT22;10517;50.742;4.224;2022-11-21T01:49:37;6.70;99.90
20712;DHT22;10517;50.742;4.224;2022-11-21T01:52:23;6.60;99.90
20712;DHT22;10517;50.742;4.224;2022-11-21T01:55:04;6.40;99.90
20712;DHT22;10517;50.742;4.224;2022-11-21T01:57:43;6.40;99.90
20712;DHT22;10517;50.742;4.224;2022-11-21T02:00:24;6.40;99.90
20712;DHT22;10517;50.742;4.224;2022-11-21T02:02:53;6.40;99.90
20712;DHT22;10517;50.742;4.224;2022-11-21T02:05:24;6.30;99.90
20712;DHT22;10517;50.742;4.224;2022-11-21T02:07:53;6.30;99.90
20712;DHT22;10517;50.742;4.224;2022-11-21T02:10:20;6.30;99.90
20712;DHT22;10517;50.742;4.224;2022-11-21T02:12:52;6.20;99.90
20712;DHT22;10517;50.742;4.224;2022-11-21T02:15:22;6.20;99.90
20712;DHT22;10517;50.742;4.224;2022-11-21T02:17:48;6.20;99.90
20712;DHT22;10517;50.742;4.224;2022-11-21T02:20:16;6.10;99.90
20712;DHT22;10517;50.742;4.224;2022-11-21T02:23:03;6.10;99.90
20712;DHT22;10517;50.742;4.224;2022-11-21T02:25:42;6.00;99.90
20712;DHT22;10517;50.742;4.224;2022-11-21T02:28:14;6.00;99.90
20712;DHT22;10517;50.742;4.224;2022-11-21T02:30:41;6.00;99.90
20712;DHT22;10517;50.742;4.224;2022-11-21T02:33:07;6.10;99.90
20712;DHT22;10517;50.742;4.224;2022-11-21T02:35:33;6.30;99.90
20712;DHT22;10517;50.742;4.224;2022-11-21T02:38:05;6.30;99.90
20712;DHT22;10517;50.742;4.224;2022-11-21T02:40:34;6.50;99.90
20712;DHT22;10517;50.742;4.224;2022-11-21T02:43:22;6.50;99.90
20712;DHT22;10517;50.742;4.224;2022-11-21T02:45:48;6.60;99.90
20712;DHT22;10517;50.742;4.224;2022-11-21T02:48:14;6.60;99.90
20712;DHT22;10517;50.742;4.224;2022-11-21T02:50:42;6.70;99.90
20712;DHT22;10517;50.742;4.224;2022-11-21T02:53:10;6.80;99.90
20712;DHT22;10517;50.742;4.224;2022-11-21T02:55:37;6.90;99.90
20712;DHT22;10517;50.742;4.224;2022-11-21T02:58:03;6.90;99.90
20712;DHT22;10517;50.742;4.224;2022-11-21T03:00:29;6.90;99.90
20712;DHT22;10517;50.742;4.224;2022-11-21T03:02:55;7.00;99.90
20712;DHT22;10517;50.742;4.224;2022-11-21T03:05:21;7.10;99.90
20712;DHT22;10517;50.742;4.224;2022-11-21T03:07:47;7.10;99.90
20712;DHT22;10517;50.742;4.224;2022-11-21T03:10:14;7.00;99.90
20712;DHT22;10517;50.742;4.224;2022-11-21T03:12:40;7.10;99.90
20712;DHT22;10517;50.742;4.224;2022-11-21T03:15:09;7.10;99.90
20712;DHT22;10517;50.742;4.224;2022-11-21T03:17:34;7.00;99.90
20712;DHT22;10517;50.742;4.224;2022-11-21T03:20:00;7.10;99.90
20712;DHT22;10517;50.742;4.224;2022-11-21T03:22:26;7.20;99.90
20712;DHT22;10517;50.742;4.224;2022-11-21T03:24:52;7.20;99.90
20712;DHT22;10517;50.742;4.224;2022-11-21T03:27:17;7.10;99.90
20712;DHT22;10517;50.742;4.224;2022-11-21T03:29:43;7.10;99.90
20712;DHT22;10517;50.742;4.224;2022-11-21T03:32:09;7.10;99.90
20712;DHT22;10517;50.742;4.224;2022-11-21T03:34:34;7.20;99.90
20712;DHT22;10517;50.742;4.224;2022-11-21T03:37:00;7.20;99.90
20712;DHT22;10517;50.742;4.224;2022-11-21T03:39:25;7.10;99.90
20712;DHT22;10517;50.742;4.224;2022-11-21T03:41:51;7.20;99.90
20712;DHT22;10517;50.742;4.224;2022-11-21T03:44:17;7.20;99.90
20712;DHT22;10517;50.742;4.224;2022-11-21T03:46:44;7.20;99.90
20712;DHT22;10517;50.742;4.224;2022-11-21T03:49:11;7.20;99.90
20712;DHT22;10517;50.742;4.224;2022-11-21T03:51:38;7.10;99.90
20712;DHT22;10517;50.742;4.224;2022-11-21T03:54:04;7.10;99.90
20712;DHT22;10517;50.742;4.224;2022-11-21T03:56:30;7.10;99.90
20712;DHT22;10517;50.742;4.224;2022-11-21T03:58:55;7.10;99.90
20712;DHT22;10517;50.742;4.224;2022-11-21T04:01:22;7.10;99.90
20712;DHT22;10517;50.742;4.224;2022-11-21T04:03:48;7.10;99.90
20712;DHT22;10517;50.742;4.224;2022-11-21T04:06:16;7.10;99.90
20712;DHT22;10517;50.742;4.224;2022-11-21T04:08:42;7.10;99.90
20712;DHT22;10517;50.742;4.224;2022-11-21T04:11:09;7.00;99.90
20712;DHT22;10517;50.742;4.224;2022-11-21T04:13:34;7.00;99.90
20712;DHT22;10517;50.742;4.224;2022-11-21T04:16:00;6.90;99.90
20712;DHT22;10517;50.742;4.224;2022-11-21T04:18:26;6.80;99.90
20712;DHT22;10517;50.742;4.224;2022-11-21T04:20:59;6.80;99.90
20712;DHT22;10517;50.742;4.224;2022-11-21T04:23:26;6.70;99.90
20712;DHT22;10517;50.742;4.224;2022-11-21T04:25:52;6.70;99.90
20712;DHT22;10517;50.742;4.224;2022-11-21T04:28:18;6.50;99.90
20712;DHT22;10517;50.742;4.224;2022-11-21T04:30:43;6.50;99.90
20712;DHT22;10517;50.742;4.224;2022-11-21T04:33:10;6.40;99.90
20712;DHT22;10517;50.742;4.224;2022-11-21T04:35:36;6.30;99.90
20712;DHT22;10517;50.742;4.224;2022-11-21T04:38:02;6.20;99.90
20712;DHT22;10517;50.742;4.224;2022-11-21T04:40:27;6.10;99.90
20712;DHT22;10517;50.742;4.224;2022-11-21T04:42:53;6.00;99.90
20712;DHT22;10517;50.742;4.224;2022-11-21T04:45:18;6.00;99.90
20712;DHT22;10517;50.742;4.224;2022-11-21T04:47:45;5.90;99.90
20712;DHT22;10517;50.742;4.224;2022-11-21T04:50:13;5.90;99.90
20712;DHT22;10517;50.742;4.224;2022-11-21T04:52:40;5.80;99.90
20712;DHT22;10517;50.742;4.224;2022-11-21T04:55:06;5.80;99.90
20712;DHT22;10517;50.742;4.224;2022-11-21T04:57:33;5.70;99.90
20712;DHT22;10517;50.742;4.224;2022-11-21T04:59:58;5.60;99.90
20712;DHT22;10517;50.742;4.224;2022-11-21T05:02:27;5.60;99.90
20712;DHT22;10517;50.742;4.224;2022-11-21T05:04:52;5.50;99.90
20712;DHT22;10517;50.742;4.224;2022-11-21T05:07:18;5.50;99.90
20712;DHT22;10517;50.742;4.224;2022-11-21T05:09:44;5.50;99.90
20712;DHT22;10517;50.742;4.224;2022-11-21T05:12:10;5.40;99.90
20712;DHT22;10517;50.742;4.224;2022-11-21T05:14:54;5.30;99.90
20712;DHT22;10517;50.742;4.224;2022-11-21T05:17:20;5.30;99.90
20712;DHT22;10517;50.742;4.224;2022-11-21T05:19:46;5.20;99.90
20712;DHT22;10517;50.742;4.224;2022-11-21T05:22:11;5.20;99.90
20712;DHT22;10517;50.742;4.224;2022-11-21T05:24:37;5.20;99.90
20712;DHT22;10517;50.742;4.224;2022-11-21T05:27:03;5.10;99.90
20712;DHT22;10517;50.742;4.224;2022-11-21T05:29:29;5.10;99.90
20712;DHT22;10517;50.742;4.224;2022-11-21T05:31:55;5.10;99.90
20712;DHT22;10517;50.742;4.224;2022-11-21T05:34:20;5.10;99.90
20712;DHT22;10517;50.742;4.224;2022-11-21T05:36:46;5.10;99.90
20712;DHT22;10517;50.742;4.224;2022-11-21T05:39:11;5.00;99.90
20712;DHT22;10517;50.742;4.224;2022-11-21T05:41:40;5.00;99.90
20712;DHT22;10517;50.742;4.224;2022-11-21T05:44:05;5.00;99.90
20712;DHT22;10517;50.742;4.224;2022-11-21T05:46:31;5.00;99.90
20712;DHT22;10517;50.742;4.224;2022-11-21T05:48:56;4.90;99.90
20712;DHT22;10517;50.742;4.224;2022-11-21T05:51:25;4.90;99.90
20712;DHT22;10517;50.742;4.224;2022-11-21T05:53:50;4.80;99.90
20712;DHT22;10517;50.742;4.224;2022-11-21T05:56:18;4.70;99.90
20712;DHT22;10517;50.742;4.224;2022-11-21T05:58:44;4.70;99.90
20712;DHT22;10517;50.742;4.224;2022-11-21T06:01:11;4.70;99.90
20712;DHT22;10517;50.742;4.224;2022-11-21T06:03:39;4.70;99.90
20712;DHT22;10517;50.742;4.224;2022-11-21T06:08:34;4.60;99.90
20712;DHT22;10517;50.742;4.224;2022-11-21T06:11:01;4.50;99.90
20712;DHT22;10517;50.742;4.224;2022-11-21T06:13:27;4.50;99.90
20712;DHT22;10517;50.742;4.224;2022-11-21T06:16:04;4.50;99.90
20712;DHT22;10517;50.742;4.224;2022-11-21T06:18:36;4.40;99.90
20712;DHT22;10517;50.742;4.224;2022-11-21T06:21:11;4.40;99.90
20712;DHT22;10517;50.742;4.224;2022-11-21T06:23:37;4.50;99.90
20712;DHT22;10517;50.742;4.224;2022-11-21T06:26:04;4.70;99.90
20712;DHT22;10517;50.742;4.224;2022-11-21T06:28:33;4.90;99.90
20712;DHT22;10517;50.742;4.224;2022-11-21T06:31:10;4.90;99.90
20712;DHT22;10517;50.742;4.224;2022-11-21T06:33:37;4.80;99.90
20712;DHT22;10517;50.742;4.224;2022-11-21T06:36:04;4.80;99.90
20712;DHT22;10517;50.742;4.224;2022-11-21T06:38:31;4.80;99.90
20712;DHT22;10517;50.742;4.224;2022-11-21T06:40:56;4.80;99.90
20712;DHT22;10517;50.742;4.224;2022-11-21T06:43:22;4.90;99.90
20712;DHT22;10517;50.742;4.224;2022-11-21T06:45:47;4.90;99.90
20712;DHT22;10517;50.742;4.224;2022-11-21T06:48:13;4.90;99.90
20712;DHT22;10517;50.742;4.224;2022-11-21T06:50:38;4.80;99.90
20712;DHT22;10517;50.742;4.224;2022-11-21T06:53:04;4.70;99.90
20712;DHT22;10517;50.742;4.224;2022-11-21T06:55:30;4.60;99.90
20712;DHT22;10517;50.742;4.224;2022-11-21T06:57:59;4.60;99.90
20712;DHT22;10517;50.742;4.224;2022-11-21T07:00:28;4.60;99.90
20712;DHT22;10517;50.742;4.224;2022-11-21T07:02:55;4.60;99.90
20712;DHT22;10517;50.742;4.224;2022-11-21T07:05:24;4.60;99.90
20712;DHT22;10517;50.742;4.224;2022-11-21T07:07:49;4.50;99.90
20712;DHT22;10517;50.742;4.224;2022-11-21T07:10:15;4.40;99.90
20712;DHT22;10517;50.742;4.224;2022-11-21T07:12:40;4.30;99.90
20712;DHT22;10517;50.742;4.224;2022-11-21T07:15:24;4.30;99.90
20712;DHT22;10517;50.742;4.224;2022-11-21T07:17:50;4.50;99.90
20712;DHT22;10517;50.742;4.224;2022-11-21T07:20:15;4.60;99.90
20712;DHT22;10517;50.742;4.224;2022-11-21T07:22:41;4.70;99.90
20712;DHT22;10517;50.742;4.224;2022-11-21T07:25:07;4.70;99.90
20712;DHT22;10517;50.742;4.224;2022-11-21T07:27:33;4.70;99.90
20712;DHT22;10517;50.742;4.224;2022-11-21T07:29:58;4.70;99.90
20712;DHT22;10517;50.742;4.224;2022-11-21T07:32:24;4.70;99.90
20712;DHT22;10517;50.742;4.224;2022-11-21T07:34:50;4.80;99.90
20712;DHT22;10517;50.742;4.224;2022-11-21T07:37:16;4.90;99.90
20712;DHT22;10517;50.742;4.224;2022-11-21T07:39:41;4.90;99.90
20712;DHT22;10517;50.742;4.224;2022-11-21T07:42:07;4.90;99.90
20712;DHT22;10517;50.742;4.224;2022-11-21T07:44:32;4.80;99.90
20712;DHT22;10517;50.742;4.224;2022-11-21T07:46:58;4.80;99.90
20712;DHT22;10517;50.742;4.224;2022-11-21T07:49:23;4.80;99.90
20712;DHT22;10517;50.742;4.224;2022-11-21T07:51:49;4.90;99.90
20712;DHT22;10517;50.742;4.224;2022-11-21T07:54:15;5.00;99.90
20712;DHT22;10517;50.742;4.224;2022-11-21T07:56:40;5.10;99.90
20712;DHT22;10517;50.742;4.224;2022-11-21T07:59:06;5.10;99.90
20712;DHT22;10517;50.742;4.224;2022-11-21T08:01:31;5.10;99.90
20712;DHT22;10517;50.742;4.224;2022-11-21T08:03:57;5.10;99.90
20712;DHT22;10517;50.742;4.224;2022-11-21T08:06:23;5.20;99.90
20712;DHT22;10517;50.742;4.224;2022-11-21T08:08:52;5.30;99.90
20712;DHT22;10517;50.742;4.224;2022-11-21T08:11:18;5.40;99.90
20712;DHT22;10517;50.742;4.224;2022-11-21T08:13:44;5.50;99.90
20712;DHT22;10517;50.742;4.224;2022-11-21T08:16:09;5.60;99.90
20712;DHT22;10517;50.742;4.224;2022-11-21T08:18:36;5.60;99.90
20712;DHT22;10517;50.742;4.224;2022-11-21T08:21:02;5.70;99.90
20712;DHT22;10517;50.742;4.224;2022-11-21T08:23:29;5.70;99.90
20712;DHT22;10517;50.742;4.224;2022-11-21T08:25:54;5.80;99.90
20712;DHT22;10517;50.742;4.224;2022-11-21T08:28:20;5.90;99.90
20712;DHT22;10517;50.742;4.224;2022-11-21T08:30:46;5.90;99.90
20712;DHT22;10517;50.742;4.224;2022-11-21T08:33:11;6.00;99.90
20712;DHT22;10517;50.742;4.224;2022-11-21T08:35:37;6.10;99.90
20712;DHT22;10517;50.742;4.224;2022-11-21T08:38:03;6.30;99.90
20712;DHT22;10517;50.742;4.224;2022-11-21T08:40:30;6.40;99.90
20712;DHT22;10517;50.742;4.224;2022-11-21T08:43:14;6.50;99.90
20712;DHT22;10517;50.742;4.224;2022-11-21T08:45:39;6.60;99.90
20712;DHT22;10517;50.742;4.224;2022-11-21T08:48:09;6.60;99.90
20712;DHT22;10517;50.742;4.224;2022-11-21T08:50:35;6.70;99.90
20712;DHT22;10517;50.742;4.224;2022-11-21T08:53:01;6.70;99.90
20712;DHT22;10517;50.742;4.224;2022-11-21T08:55:28;6.70;99.90
20712;DHT22;10517;50.742;4.224;2022-11-21T08:57:53;6.80;99.90
20712;DHT22;10517;50.742;4.224;2022-11-21T09:00:19;6.80;99.90
20712;DHT22;10517;50.742;4.224;2022-11-21T09:02:44;6.80;99.90
20712;DHT22;10517;50.742;4.224;2022-11-21T09:05:10;6.80;99.90
20712;DHT22;10517;50.742;4.224;2022-11-21T09:07:35;6.90;99.90
20712;DHT22;10517;50.742;4.224;2022-11-21T09:10:02;6.80;99.90
20712;DHT22;10517;50.742;4.224;2022-11-21T09:12:27;6.90;99.90
20712;DHT22;10517;50.742;4.224;2022-11-21T09:14:53;7.10;99.90
20712;DHT22;10517;50.742;4.224;2022-11-21T09:17:37;7.20;99.90
20712;DHT22;10517;50.742;4.224;2022-11-21T09:20:21;7.40;99.90
20712;DHT22;10517;50.742;4.224;2022-11-21T09:22:46;7.30;99.90
20712;DHT22;10517;50.742;4.224;2022-11-21T09:25:12;7.30;99.90
20712;DHT22;10517;50.742;4.224;2022-11-21T09:27:38;7.30;99.90
20712;DHT22;10517;50.742;4.224;2022-11-21T09:30:03;7.40;99.90
20712;DHT22;10517;50.742;4.224;2022-11-21T09:32:29;7.40;99.90
20712;DHT22;10517;50.742;4.224;2022-11-21T09:34:55;7.40;99.90
20712;DHT22;10517;50.742;4.224;2022-11-21T09:37:20;7.30;99.90
20712;DHT22;10517;50.742;4.224;2022-11-21T09:39:46;7.20;99.90
20712;DHT22;10517;50.742;4.224;2022-11-21T09:42:35;7.20;99.90
20712;DHT22;10517;50.742;4.224;2022-11-21T09:45:15;7.20;99.90
20712;DHT22;10517;50.742;4.224;2022-11-21T09:47:45;7.30;99.90
20712;DHT22;10517;50.742;4.224;2022-11-21T09:52:43;7.40;99.90
20712;DHT22;10517;50.742;4.224;2022-11-21T09:57:51;7.60;99.90
20712;DHT22;10517;50.742;4.224;2022-11-21T10:00:22;7.70;99.90
20712;DHT22;10517;50.742;4.224;2022-11-21T10:02:49;7.70;99.90
20712;DHT22;10517;50.742;4.224;2022-11-21T10:05:16;7.70;99.90
20712;DHT22;10517;50.742;4.224;2022-11-21T10:07:44;7.70;99.90
20712;DHT22;10517;50.742;4.224;2022-11-21T10:24:39;7.80;99.90
20712;DHT22;10517;50.742;4.224;2022-11-21T10:27:19;7.80;99.90
20712;DHT22;10517;50.742;4.224;2022-11-21T10:29:56;8.00;99.90
20712;DHT22;10517;50.742;4.224;2022-11-21T10:35:02;8.50;99.90
20712;DHT22;10517;50.742;4.224;2022-11-21T10:37:36;8.60;99.90
20712;DHT22;10517;50.742;4.224;2022-11-21T10:40:29;8.60;99.90
20712;DHT22;10517;50.742;4.224;2022-11-21T10:43:00;8.70;99.90
20712;DHT22;10517;50.742;4.224;2022-11-21T10:45:47;8.80;99.90
20712;DHT22;10517;50.742;4.224;2022-11-21T10:48:13;8.80;99.90
20712;DHT22;10517;50.742;4.224;2022-11-21T10:51:09;8.90;99.90
20712;DHT22;10517;50.742;4.224;2022-11-21T10:53:35;8.80;99.90
20712;DHT22;10517;50.742;4.224;2022-11-21T10:56:24;8.90;99.90
20712;DHT22;10517;50.742;4.224;2022-11-21T10:58:52;9.00;99.90
20712;DHT22;10517;50.742;4.224;2022-11-21T11:01:33;9.10;99.90
20712;DHT22;10517;50.742;4.224;2022-11-21T11:06:35;9.40;99.90
20712;DHT22;10517;50.742;4.224;2022-11-21T11:09:01;9.50;99.90
20712;DHT22;10517;50.742;4.224;2022-11-21T11:11:26;9.60;99.90
20712;DHT22;10517;50.742;4.224;2022-11-21T11:13:56;9.60;99.90
20712;DHT22;10517;50.742;4.224;2022-11-21T11:16:23;9.60;99.90
20712;DHT22;10517;50.742;4.224;2022-11-21T11:19:15;9.60;99.90
20712;DHT22;10517;50.742;4.224;2022-11-21T11:21:43;9.60;99.90
20712;DHT22;10517;50.742;4.224;2022-11-21T11:29:29;9.70;99.90
20712;DHT22;10517;50.742;4.224;2022-11-21T11:32:25;9.80;99.90
20712;DHT22;10517;50.742;4.224;2022-11-21T11:35:18;9.80;99.90
20712;DHT22;10517;50.742;4.224;2022-11-21T11:37:58;9.70;99.90
20712;DHT22;10517;50.742;4.224;2022-11-21T11:40:41;9.70;99.90
20712;DHT22;10517;50.742;4.224;2022-11-21T11:43:25;9.80;99.90
20712;DHT22;10517;50.742;4.224;2022-11-21T11:46:32;9.60;99.90
20712;DHT22;10517;50.742;4.224;2022-11-21T11:49:37;9.70;99.90
20712;DHT22;10517;50.742;4.224;2022-11-21T11:52:29;9.70;99.90
20712;DHT22;10517;50.742;4.224;2022-11-21T11:55:01;9.70;99.90
20712;DHT22;10517;50.742;4.224;2022-11-21T11:57:30;9.70;99.90
20712;DHT22;10517;50.742;4.224;2022-11-21T12:02:57;9.70;99.90
20712;DHT22;10517;50.742;4.224;2022-11-21T12:05:26;9.70;99.90
20712;DHT22;10517;50.742;4.224;2022-11-21T12:08:20;9.80;99.90
20712;DHT22;10517;50.742;4.224;2022-11-21T12:11:00;10.00;99.90
20712;DHT22;10517;50.742;4.224;2022-11-21T12:13:49;10.00;99.90
20712;DHT22;10517;50.742;4.224;2022-11-21T12:16:16;10.10;99.90
20712;DHT22;10517;50.742;4.224;2022-11-21T12:19:09;10.00;99.90
20712;DHT22;10517;50.742;4.224;2022-11-21T12:21:37;10.00;99.90
20712;DHT22;10517;50.742;4.224;2022-11-21T12:24:03;10.00;99.90
20712;DHT22;10517;50.742;4.224;2022-11-21T12:27:25;9.80;99.90
20712;DHT22;10517;50.742;4.224;2022-11-21T12:42:03;10.20;99.90
20712;DHT22;10517;50.742;4.224;2022-11-21T12:50:11;10.50;99.90
20712;DHT22;10517;50.742;4.224;2022-11-21T12:53:06;10.60;99.90
20712;DHT22;10517;50.742;4.224;2022-11-21T12:56:01;10.60;99.90
20712;DHT22;10517;50.742;4.224;2022-11-21T12:58:38;10.50;99.90
20712;DHT22;10517;50.742;4.224;2022-11-21T13:01:22;10.40;99.90
20712;DHT22;10517;50.742;4.224;2022-11-21T13:04:02;10.30;99.90
20712;DHT22;10517;50.742;4.224;2022-11-21T13:06:31;10.30;99.90
20712;DHT22;10517;50.742;4.224;2022-11-21T13:08:59;10.10;99.90
20712;DHT22;10517;50.742;4.224;2022-11-21T13:12:12;10.20;99.90
20712;DHT22;10517;50.742;4.224;2022-11-21T13:20:01;10.10;99.90
20712;DHT22;10517;50.742;4.224;2022-11-21T13:25:11;10.00;99.90
20712;DHT22;10517;50.742;4.224;2022-11-21T13:27:41;10.00;99.90
20712;DHT22;10517;50.742;4.224;2022-11-21T13:32:55;10.10;99.90
20712;DHT22;10517;50.742;4.224;2022-11-21T13:38:08;10.00;99.90
20712;DHT22;10517;50.742;4.224;2022-11-21T13:40:38;10.10;99.90
20712;DHT22;10517;50.742;4.224;2022-11-21T13:43:25;10.10;99.90
20712;DHT22;10517;50.742;4.224;2022-11-21T13:45:52;10.20;99.90
20712;DHT22;10517;50.742;4.224;2022-11-21T13:54:07;10.10;99.90
20712;DHT22;10517;50.742;4.224;2022-11-21T14:02:28;10.00;99.90
20712;DHT22;10517;50.742;4.224;2022-11-21T14:07:35;10.10;99.90
20712;DHT22;10517;50.742;4.224;2022-11-21T14:12:50;10.10;99.90
20712;DHT22;10517;50.742;4.224;2022-11-21T14:18:04;10.00;99.90
20712;DHT22;10517;50.742;4.224;2022-11-21T14:20:47;10.10;99.90
20712;DHT22;10517;50.742;4.224;2022-11-21T14:23:18;10.00;99.90
20712;DHT22;10517;50.742;4.224;2022-11-21T14:26:10;9.90;99.90
20712;DHT22;10517;50.742;4.224;2022-11-21T14:28:34;9.90;99.90
20712;DHT22;10517;50.742;4.224;2022-11-21T14:31:05;9.90;99.90
20712;DHT22;10517;50.742;4.224;2022-11-21T14:33:31;9.80;99.90
20712;DHT22;10517;50.742;4.224;2022-11-21T14:38:32;9.80;99.90
20712;DHT22;10517;50.742;4.224;2022-11-21T14:41:25;9.80;99.90
20712;DHT22;10517;50.742;4.224;2022-11-21T14:46:31;9.80;99.90
20712;DHT22;10517;50.742;4.224;2022-11-21T14:52:23;9.80;99.90
20712;DHT22;10517;50.742;4.224;2022-11-21T14:54:53;9.70;99.90
20712;DHT22;10517;50.742;4.224;2022-11-21T14:57:23;9.60;99.90
20712;DHT22;10517;50.742;4.224;2022-11-21T14:59:50;9.50;99.90
20712;DHT22;10517;50.742;4.224;2022-11-21T15:02:24;9.40;99.90
20712;DHT22;10517;50.742;4.224;2022-11-21T15:04:52;9.50;99.90
20712;DHT22;10517;50.742;4.224;2022-11-21T15:07:28;9.40;99.90
20712;DHT22;10517;50.742;4.224;2022-11-21T15:09:59;9.40;99.90
20712;DHT22;10517;50.742;4.224;2022-11-21T15:15:18;9.50;99.90
20712;DHT22;10517;50.742;4.224;2022-11-21T15:17:56;9.50;99.90
20712;DHT22;10517;50.742;4.224;2022-11-21T15:20:22;9.50;99.90
20712;DHT22;10517;50.742;4.224;2022-11-21T15:22:48;9.50;99.90
20712;DHT22;10517;50.742;4.224;2022-11-21T15:25:17;9.60;99.90
20712;DHT22;10517;50.742;4.224;2022-11-21T15:27:44;9.60;99.90
20712;DHT22;10517;50.742;4.224;2022-11-21T15:40:37;9.60;99.90
20712;DHT22;10517;50.742;4.224;2022-11-21T15:43:03;9.50;99.90
20712;DHT22;10517;50.742;4.224;2022-11-21T15:45:29;9.50;99.90
20712;DHT22;10517;50.742;4.224;2022-11-21T15:47:54;9.40;99.90
20712;DHT22;10517;50.742;4.224;2022-11-21T15:50:24;9.50;99.90
20712;DHT22;10517;50.742;4.224;2022-11-21T15:52:51;9.40;99.90
20712;DHT22;10517;50.742;4.224;2022-11-21T15:55:35;9.50;99.90
20712;DHT22;10517;50.742;4.224;2022-11-21T15:58:00;9.50;99.90
20712;DHT22;10517;50.742;4.224;2022-11-21T16:00:26;9.50;99.90
20712;DHT22;10517;50.742;4.224;2022-11-21T16:02:51;9.40;99.90
20712;DHT22;10517;50.742;4.224;2022-11-21T16:05:17;9.50;99.90
20712;DHT22;10517;50.742;4.224;2022-11-21T16:07:42;9.40;99.90
20712;DHT22;10517;50.742;4.224;2022-11-21T16:10:08;9.30;99.90
20712;DHT22;10517;50.742;4.224;2022-11-21T16:12:34;9.30;99.90
20712;DHT22;10517;50.742;4.224;2022-11-21T16:15:00;9.30;99.90
20712;DHT22;10517;50.742;4.224;2022-11-21T16:17:25;9.40;99.90
20712;DHT22;10517;50.742;4.224;2022-11-21T16:19:51;9.40;99.90
20712;DHT22;10517;50.742;4.224;2022-11-21T16:22:16;9.30;99.90
20712;DHT22;10517;50.742;4.224;2022-11-21T16:24:42;9.20;99.90
20712;DHT22;10517;50.742;4.224;2022-11-21T16:27:08;9.20;99.90
20712;DHT22;10517;50.742;4.224;2022-11-21T16:29:34;9.10;99.90
20712;DHT22;10517;50.742;4.224;2022-11-21T16:31:59;9.00;99.90
20712;DHT22;10517;50.742;4.224;2022-11-21T16:34:26;9.00;99.90
20712;DHT22;10517;50.742;4.224;2022-11-21T16:36:52;8.90;99.90
20712;DHT22;10517;50.742;4.224;2022-11-21T16:39:18;8.90;99.90
20712;DHT22;10517;50.742;4.224;2022-11-21T16:41:44;9.00;99.90
20712;DHT22;10517;50.742;4.224;2022-11-21T16:44:12;9.00;99.90
20712;DHT22;10517;50.742;4.224;2022-11-21T16:46:43;8.90;99.90
20712;DHT22;10517;50.742;4.224;2022-11-21T16:49:09;8.90;99.90
20712;DHT22;10517;50.742;4.224;2022-11-21T16:51:35;8.80;99.90
20712;DHT22;10517;50.742;4.224;2022-11-21T16:54:00;8.80;99.90
20712;DHT22;10517;50.742;4.224;2022-11-21T16:56:26;8.80;99.90
20712;DHT22;10517;50.742;4.224;2022-11-21T16:58:52;8.80;99.90
20712;DHT22;10517;50.742;4.224;2022-11-21T17:01:28;8.90;99.90
20712;DHT22;10517;50.742;4.224;2022-11-21T17:03:53;8.90;99.90
20712;DHT22;10517;50.742;4.224;2022-11-21T17:06:22;8.90;99.90
20712;DHT22;10517;50.742;4.224;2022-11-21T17:08:48;8.90;99.90
20712;DHT22;10517;50.742;4.224;2022-11-21T17:11:19;8.90;99.90
20712;DHT22;10517;50.742;4.224;2022-11-21T17:13:46;8.90;99.90
20712;DHT22;10517;50.742;4.224;2022-11-21T17:16:13;9.00;99.90
20712;DHT22;10517;50.742;4.224;2022-11-21T17:18:39;8.90;99.90
20712;DHT22;10517;50.742;4.224;2022-11-21T17:21:08;8.90;99.90
20712;DHT22;10517;50.742;4.224;2022-11-21T17:23:35;8.80;99.90
20712;DHT22;10517;50.742;4.224;2022-11-21T17:26:03;8.80;99.90
20712;DHT22;10517;50.742;4.224;2022-11-21T17:28:28;8.70;99.90
20712;DHT22;10517;50.742;4.224;2022-11-21T17:30:54;8.60;99.90
20712;DHT22;10517;50.742;4.224;2022-11-21T17:33:20;8.70;99.90
20712;DHT22;10517;50.742;4.224;2022-11-21T17:35:46;8.70;99.90
20712;DHT22;10517;50.742;4.224;2022-11-21T17:38:12;8.60;99.90
20712;DHT22;10517;50.742;4.224;2022-11-21T17:40:38;8.80;99.90
20712;DHT22;10517;50.742;4.224;2022-11-21T17:43:03;8.70;99.90
20712;DHT22;10517;50.742;4.224;2022-11-21T17:45:29;8.70;99.90
20712;DHT22;10517;50.742;4.224;2022-11-21T17:47:54;8.70;99.90